createdAt,value
2019-05-03T00:01:54.842Z,100755.16
2019-05-03T00:04:23.162Z,100754.90
2019-05-03T00:06:52.122Z,100754.38
2019-05-03T00:09:22.531Z,100752.54
2019-05-03T00:11:52.717Z,100754.75
2019-05-03T00:14:21.812Z,100758.02
2019-05-03T00:16:52.212Z,100757.75
2019-05-03T00:19:21.963Z,100756.96
2019-05-03T00:21:52.579Z,100769.68
2019-05-03T00:24:22.593Z,100770.23
2019-05-03T00:26:51.645Z,100765.63
2019-05-03T00:29:21.865Z,100763.89
2019-05-03T00:31:51.674Z,100766.40
2019-05-03T00:34:24.805Z,100767.75
2019-05-03T00:36:54.735Z,100769.17
2019-05-03T00:39:27.312Z,100774.34
2019-05-03T00:41:55.649Z,100765.67
2019-05-03T00:44:23.943Z,100766.47
2019-05-03T00:46:52.221Z,100758.14
2019-05-03T00:49:22.507Z,100763.34
2019-05-03T00:51:51.677Z,100761.23
2019-05-03T00:54:20.030Z,100764.50
2019-05-03T00:56:48.456Z,100763.44
2019-05-03T00:59:16.809Z,100762.94
2019-05-03T01:01:45.272Z,100766.44
2019-05-03T01:04:13.857Z,100768.34
2019-05-03T01:06:42.542Z,100763.30
2019-05-03T01:09:18.250Z,100769.52
2019-05-03T01:11:46.727Z,100769.32
2019-05-03T01:14:15.168Z,100777.95
2019-05-03T01:16:43.455Z,100776.22
2019-05-03T01:19:12.125Z,100779.56
2019-05-03T01:21:42.177Z,100790.11
2019-05-03T01:24:12.296Z,100777.53
2019-05-03T01:26:42.043Z,100790.54
2019-05-03T01:29:12.171Z,100793.02
2019-05-03T01:31:42.173Z,100785.83
2019-05-03T01:34:12.403Z,100786.72
2019-05-03T01:36:42.705Z,100788.14
2019-05-03T01:39:12.757Z,100795.22
2019-05-03T01:41:41.683Z,100788.81
2019-05-03T01:44:10.251Z,100793.14
2019-05-03T01:46:38.581Z,100787.78
2019-05-03T01:49:08.532Z,100791.59
2019-05-03T01:51:52.535Z,100787.86
2019-05-03T01:54:20.690Z,100794.64
2019-05-03T01:56:56.875Z,100784.98
2019-05-03T01:59:19.098Z,100780.44
2019-05-03T02:01:49.017Z,100787.23
2019-05-03T02:04:32.239Z,100788.59
2019-05-03T02:07:02.307Z,100790.98
2019-05-03T02:09:32.254Z,100792.92
2019-05-03T02:12:02.145Z,100797.73
2019-05-03T02:14:31.743Z,100789.92
2019-05-03T02:17:01.819Z,100795.84
2019-05-03T02:19:30.242Z,100794.21
2019-05-03T02:21:58.521Z,100780.48
2019-05-03T02:24:26.816Z,100796.05
2019-05-03T02:26:55.401Z,100794.41
2019-05-03T02:29:23.779Z,100797.92
2019-05-03T02:31:53.496Z,100793.33
2019-05-03T02:34:23.902Z,100798.72
2019-05-03T02:36:53.787Z,100795.23
2019-05-03T02:39:23.048Z,100797.66
2019-05-03T02:41:58.426Z,100798.50
2019-05-03T02:44:22.592Z,100790.95
2019-05-03T02:47:07.625Z,100803.66
2019-05-03T02:49:37.550Z,100801.27
2019-05-03T02:52:06.612Z,100803.71
2019-05-03T02:54:35.405Z,100806.42
2019-05-03T02:57:06.344Z,100806.74
2019-05-03T02:59:34.730Z,100806.50
2019-05-03T03:02:06.115Z,100804.66
2019-05-03T03:04:35.373Z,100803.63
2019-05-03T03:07:05.502Z,100806.61
2019-05-03T03:09:36.056Z,100812.58
2019-05-03T03:12:06.083Z,100812.60
2019-05-03T03:14:36.283Z,100813.69
2019-05-03T03:17:06.663Z,100819.87
2019-05-03T03:19:35.281Z,100817.24
2019-05-03T03:22:05.883Z,100824.23
2019-05-03T03:24:36.155Z,100826.16
2019-05-03T03:27:06.441Z,100826.16
2019-05-03T03:29:35.868Z,100825.66
2019-05-03T03:32:22.702Z,100826.23
2019-05-03T03:35:03.533Z,100828.66
2019-05-03T03:37:30.219Z,100833.22
2019-05-03T03:39:58.808Z,100827.07
2019-05-03T03:42:28.297Z,100838.10
2019-05-03T03:44:56.617Z,100837.05
2019-05-03T03:47:27.231Z,100841.64
2019-05-03T03:49:55.379Z,100845.97
2019-05-03T03:52:25.511Z,100852.94
2019-05-03T03:54:55.419Z,100848.39
2019-05-03T03:57:25.298Z,100849.74
2019-05-03T03:59:56.009Z,100849.20
2019-05-03T04:02:26.507Z,100848.67
2019-05-03T04:04:56.152Z,100845.19
2019-05-03T04:07:26.165Z,100849.78
2019-05-03T04:09:56.193Z,100866.70
2019-05-03T04:12:26.592Z,100869.39
2019-05-03T04:15:10.822Z,100872.35
2019-05-03T04:17:56.710Z,100869.94
2019-05-03T04:20:27.247Z,100875.31
2019-05-03T04:22:56.047Z,100875.31
2019-05-03T04:25:26.214Z,100875.04
2019-05-03T04:27:56.094Z,100890.61
2019-05-03T04:30:25.646Z,100887.14
2019-05-03T04:32:56.455Z,100887.14
2019-05-03T04:35:26.620Z,100887.14
2019-05-03T04:37:56.306Z,100885.52
2019-05-03T04:40:26.077Z,100883.38
2019-05-03T04:42:55.944Z,100886.85
2019-05-03T04:45:25.571Z,100886.30
2019-05-03T04:47:55.980Z,100886.59
2019-05-03T04:50:25.528Z,100886.59
2019-05-03T04:52:56.780Z,100893.81
2019-05-03T04:55:26.655Z,100901.05
2019-05-03T04:57:56.101Z,100907.77
2019-05-03T05:00:25.669Z,100907.77
2019-05-03T05:02:55.300Z,100901.58
2019-05-03T05:05:26.192Z,100906.89
2019-05-03T05:07:55.803Z,100917.64
2019-05-03T05:10:26.141Z,100917.64
2019-05-03T05:12:55.122Z,100918.17
2019-05-03T05:15:26.228Z,100914.13
2019-05-03T05:17:56.337Z,100922.15
2019-05-03T05:20:32.549Z,100914.34
2019-05-03T05:23:00.852Z,100914.34
2019-05-03T05:25:36.502Z,100930.19
2019-05-03T05:28:09.585Z,100923.45
2019-05-03T05:30:37.973Z,100925.82
2019-05-03T05:33:07.910Z,100931.45
2019-05-03T05:35:36.203Z,100938.95
2019-05-03T05:38:04.744Z,100938.36
2019-05-03T05:40:34.923Z,100938.34
2019-05-03T05:43:04.908Z,100938.84
2019-05-03T05:45:34.864Z,100937.23
2019-05-03T05:48:10.997Z,100942.03
2019-05-03T05:50:40.948Z,100942.80
2019-05-03T05:53:09.240Z,100944.38
2019-05-03T05:55:51.250Z,100948.66
2019-05-03T05:58:21.346Z,100949.70
2019-05-03T06:00:59.942Z,100953.70
2019-05-03T06:03:28.246Z,100954.95
2019-05-03T06:05:58.156Z,100954.66
2019-05-03T06:08:30.788Z,100953.01
2019-05-03T06:11:09.630Z,100951.30
2019-05-03T06:13:44.368Z,100955.87
2019-05-03T06:16:15.509Z,100959.08
2019-05-03T06:18:51.873Z,100957.45
2019-05-03T06:21:25.086Z,100955.77
2019-05-03T06:23:57.161Z,100961.39
2019-05-03T06:26:44.309Z,100956.46
2019-05-03T06:29:14.835Z,100960.69
2019-05-03T06:31:46.996Z,100953.31
2019-05-03T06:34:15.404Z,100960.83
2019-05-03T06:36:45.555Z,100955.70
2019-05-03T06:39:15.461Z,100954.03
2019-05-03T06:41:44.539Z,100953.72
2019-05-03T06:44:14.510Z,100961.51
2019-05-03T06:46:45.549Z,100959.55
2019-05-03T06:49:15.258Z,100955.16
2019-05-03T06:51:45.660Z,100952.80
2019-05-03T06:54:15.737Z,100953.44
2019-05-03T06:56:45.191Z,100957.38
2019-05-03T06:59:27.768Z,100953.42
2019-05-03T07:01:57.696Z,100956.49
2019-05-03T07:04:34.743Z,100953.33
2019-05-03T07:07:10.485Z,100959.94
2019-05-03T07:09:56.072Z,100964.91
2019-05-03T07:12:25.012Z,100961.95
2019-05-03T07:14:54.877Z,100957.66
2019-05-03T07:17:24.806Z,100961.94
2019-05-03T07:19:54.697Z,100966.08
2019-05-03T07:22:24.438Z,100967.39
2019-05-03T07:24:54.674Z,100964.76
2019-05-03T07:27:24.800Z,100970.73
2019-05-03T07:29:55.485Z,100968.47
2019-05-03T07:32:24.701Z,100967.48
2019-05-03T07:34:53.055Z,100966.56
2019-05-03T07:37:21.333Z,100968.62
2019-05-03T07:39:49.649Z,100969.09
2019-05-03T07:42:18.011Z,100965.34
2019-05-03T07:44:46.347Z,100972.19
2019-05-03T07:47:14.931Z,100965.02
2019-05-03T07:49:44.747Z,100968.78
2019-05-03T07:52:14.734Z,100974.68
2019-05-03T07:54:45.132Z,100972.48
2019-05-03T07:57:25.482Z,100972.04
2019-05-03T07:59:55.678Z,100969.57
2019-05-03T08:02:25.231Z,100967.24
2019-05-03T08:04:54.865Z,100973.92
2019-05-03T08:07:25.686Z,100970.44
2019-05-03T08:09:55.507Z,100966.05
2019-05-03T08:12:24.714Z,100971.84
2019-05-03T08:14:54.992Z,100973.72
2019-05-03T08:17:25.353Z,100980.13
2019-05-03T08:19:55.250Z,100975.39
2019-05-03T08:22:25.315Z,100976.27
2019-05-03T08:24:55.424Z,100968.39
2019-05-03T08:27:25.146Z,100969.19
2019-05-03T08:29:55.537Z,100972.05
2019-05-03T08:32:31.355Z,100976.58
2019-05-03T08:35:19.670Z,100973.36
2019-05-03T08:37:54.533Z,100964.43
2019-05-03T08:40:24.590Z,100961.46
2019-05-03T08:42:54.885Z,100960.41
2019-05-03T08:45:25.467Z,100962.41
2019-05-03T08:47:55.373Z,100958.44
2019-05-03T08:50:25.734Z,100954.72
2019-05-03T08:52:55.731Z,100956.66
2019-05-03T08:55:25.018Z,100954.00
2019-05-03T08:57:55.081Z,100954.48
2019-05-03T09:00:25.223Z,100956.91
2019-05-03T09:02:54.874Z,100958.49
2019-05-03T09:05:25.061Z,100958.69
2019-05-03T09:07:54.884Z,100955.95
2019-05-03T09:10:25.088Z,100956.42
2019-05-03T09:13:07.017Z,100959.77
2019-05-03T09:15:36.097Z,100950.52
2019-05-03T09:18:04.931Z,100946.59
2019-05-03T09:20:35.413Z,100956.77
2019-05-03T09:23:05.378Z,100953.36
2019-05-03T09:25:35.573Z,100953.26
2019-05-03T09:28:04.752Z,100948.13
2019-05-03T09:30:35.560Z,100953.98
2019-05-03T09:33:06.014Z,100947.25
2019-05-03T09:35:35.895Z,100952.19
2019-05-03T09:38:05.695Z,100953.26
2019-05-03T09:40:35.249Z,100949.49
2019-05-03T09:43:04.513Z,100945.27
2019-05-03T09:45:35.111Z,100948.83
2019-05-03T09:48:03.030Z,100939.60
2019-05-03T09:50:31.954Z,100938.42
2019-05-03T09:53:00.614Z,100940.74
2019-05-03T09:55:33.033Z,100945.60
2019-05-03T09:58:01.301Z,100950.08
2019-05-03T10:00:29.600Z,100941.70
2019-05-03T10:02:57.949Z,100944.24
2019-05-03T10:05:26.338Z,100940.75
2019-05-03T10:07:54.688Z,100946.42
2019-05-03T10:10:24.816Z,100932.71
2019-05-03T10:12:54.958Z,100931.56
2019-05-03T10:15:34.797Z,100938.16
2019-05-03T10:18:10.649Z,100930.36
2019-05-03T10:20:34.870Z,100925.81
2019-05-03T10:23:21.419Z,100930.95
2019-05-03T10:25:49.804Z,100936.20
2019-05-03T10:28:18.605Z,100933.84
2019-05-03T10:30:46.981Z,100933.03
2019-05-03T10:33:22.873Z,100937.52
2019-05-03T10:35:51.327Z,100925.08
2019-05-03T10:38:19.657Z,100925.02
2019-05-03T10:40:48.154Z,100930.61
2019-05-03T10:43:16.465Z,100934.55
2019-05-03T10:45:45.059Z,100937.34
2019-05-03T10:48:15.458Z,100932.32
2019-05-03T10:50:45.205Z,100925.39
2019-05-03T10:53:15.456Z,100929.09
2019-05-03T10:55:45.379Z,100923.86
2019-05-03T10:58:18.307Z,100923.02
2019-05-03T11:00:52.882Z,100919.86
2019-05-03T11:03:19.038Z,100915.23
2019-05-03T11:05:48.512Z,100913.36
2019-05-03T11:08:16.813Z,100913.35
2019-05-03T11:10:45.090Z,100913.73
2019-05-03T11:13:15.413Z,100905.95
2019-05-03T11:15:44.433Z,100907.41
2019-05-03T11:18:14.648Z,100905.19
2019-05-03T11:20:45.315Z,100900.44
2019-05-03T11:23:14.634Z,100911.34
2019-05-03T11:25:45.058Z,100908.28
2019-05-03T11:28:14.892Z,100900.72
2019-05-03T11:30:55.124Z,100896.62
2019-05-03T11:33:15.757Z,100900.38
2019-05-03T11:35:48.413Z,100894.54
2019-05-03T11:38:18.459Z,100898.47
2019-05-03T11:40:46.765Z,100892.60
2019-05-03T11:43:15.456Z,100900.77
2019-05-03T11:45:44.913Z,100894.92
2019-05-03T11:48:14.804Z,100902.35
2019-05-03T11:50:45.310Z,100898.02
2019-05-03T11:53:14.515Z,100898.43
2019-05-03T11:55:46.113Z,100895.72
2019-05-03T11:58:20.354Z,100896.47
2019-05-03T12:00:50.536Z,100905.17
2019-05-03T12:03:26.262Z,100894.91
2019-05-03T12:05:56.238Z,100903.02
2019-05-03T12:08:25.304Z,100906.06
2019-05-03T12:11:00.627Z,100903.31
2019-05-03T12:13:25.691Z,100907.91
2019-05-03T12:15:55.276Z,100900.50
2019-05-03T12:18:25.178Z,100902.02
2019-05-03T12:20:56.918Z,100891.80
2019-05-03T12:23:25.887Z,100901.41
2019-05-03T12:25:55.433Z,100892.26
2019-05-03T12:28:25.687Z,100884.37
2019-05-03T12:30:54.296Z,100889.48
2019-05-03T12:33:22.634Z,100889.79
2019-05-03T12:35:51.093Z,100890.19
2019-05-03T12:38:19.476Z,100895.07
2019-05-03T12:40:47.779Z,100883.00
2019-05-03T12:43:16.074Z,100882.13
2019-05-03T12:45:44.537Z,100879.02
2019-05-03T12:48:12.838Z,100878.91
2019-05-03T12:50:41.358Z,100865.23
2019-05-03T12:53:10.198Z,100866.43
2019-05-03T12:55:38.656Z,100867.59
2019-05-03T12:58:06.981Z,100868.45
2019-05-03T13:00:49.347Z,100853.55
2019-05-03T13:03:19.280Z,100868.67
2019-05-03T13:05:48.184Z,100871.34
2019-05-03T13:08:40.145Z,100868.08
2019-05-03T13:11:08.568Z,100855.67
2019-05-03T13:13:36.857Z,100856.64
2019-05-03T13:16:05.685Z,100861.39
2019-05-03T13:18:35.109Z,100850.69
2019-05-03T13:21:05.841Z,100844.13
2019-05-03T13:23:35.345Z,100840.77
2019-05-03T13:26:05.539Z,100838.11
2019-05-03T13:28:34.469Z,100844.23
2019-05-03T13:31:02.785Z,100834.61
2019-05-03T13:33:31.054Z,100833.20
2019-05-03T13:35:59.360Z,100824.70
2019-05-03T13:38:27.645Z,100823.80
2019-05-03T13:40:55.971Z,100821.52
2019-05-03T13:43:24.370Z,100828.73
2019-05-03T13:45:52.841Z,100821.81
2019-05-03T13:48:22.341Z,100824.64
2019-05-03T13:50:51.944Z,100835.91
2019-05-03T13:53:20.251Z,100827.73
2019-05-03T13:55:48.531Z,100816.67
2019-05-03T13:58:16.844Z,100813.77
2019-05-03T14:00:45.504Z,100823.83
2019-05-03T14:03:15.212Z,100818.92
2019-05-03T14:05:44.616Z,100821.81
2019-05-03T14:08:15.420Z,100808.76
2019-05-03T14:10:45.520Z,100813.36
2019-05-03T14:13:13.308Z,100820.02
2019-05-03T14:15:41.770Z,100815.91
2019-05-03T14:18:10.166Z,100815.77
2019-05-03T14:20:40.097Z,100814.00
2019-05-03T14:23:08.378Z,100823.06
2019-05-03T14:25:36.684Z,100820.16
2019-05-03T14:28:05.549Z,100823.37
2019-05-03T14:30:34.689Z,100820.59
2019-05-03T14:33:05.057Z,100810.18
2019-05-03T14:35:34.632Z,100813.73
2019-05-03T14:38:05.745Z,100813.16
2019-05-03T14:40:33.176Z,100811.66
2019-05-03T14:43:01.523Z,100810.94
2019-05-03T14:45:29.841Z,100809.22
2019-05-03T14:47:58.167Z,100815.03
2019-05-03T14:50:26.593Z,100808.83
2019-05-03T14:52:57.069Z,100805.79
2019-05-03T14:55:26.602Z,100808.25
2019-05-03T14:58:00.008Z,100811.26
2019-05-03T15:00:29.931Z,100805.95
2019-05-03T15:02:59.863Z,100804.54
2019-05-03T15:05:28.166Z,100797.03
2019-05-03T15:07:56.469Z,100798.45
2019-05-03T15:10:24.761Z,100796.40
2019-05-03T15:12:53.085Z,100794.50
2019-05-03T15:15:21.437Z,100789.20
2019-05-03T15:17:49.781Z,100789.33
2019-05-03T15:20:18.098Z,100797.31
2019-05-03T15:22:46.875Z,100778.83
2019-05-03T15:25:15.211Z,100782.99
2019-05-03T15:27:44.847Z,100780.28
2019-05-03T15:30:15.357Z,100779.27
2019-05-03T15:32:54.777Z,100776.02
2019-05-03T15:35:15.193Z,100776.69
2019-05-03T15:37:45.388Z,100781.06
2019-05-03T15:40:15.451Z,100779.77
2019-05-03T15:42:45.686Z,100777.38
2019-05-03T15:45:25.223Z,100776.56
2019-05-03T15:47:57.959Z,100774.35
2019-05-03T15:50:27.108Z,100789.71
2019-05-03T15:52:55.439Z,100792.45
2019-05-03T15:55:26.631Z,100796.49
2019-05-03T15:57:55.312Z,100792.29
2019-05-03T16:00:24.509Z,100791.44
2019-05-03T16:02:54.606Z,100792.97
2019-05-03T16:05:25.089Z,100796.19
2019-05-03T16:07:55.144Z,100788.53
2019-05-03T16:10:24.904Z,100793.18
2019-05-03T16:12:54.559Z,100786.18
2019-05-03T16:15:24.593Z,100787.00
2019-05-03T16:17:54.806Z,100784.57
2019-05-03T16:20:25.152Z,100780.41
2019-05-03T16:22:54.414Z,100786.91
2019-05-03T16:25:25.122Z,100783.06
2019-05-03T16:27:55.404Z,100783.05
2019-05-03T16:30:25.667Z,100784.55
2019-05-03T16:32:55.364Z,100775.89
2019-05-03T16:35:25.549Z,100775.23
2019-05-03T16:37:54.462Z,100772.13
2019-05-03T16:40:25.150Z,100770.06
2019-05-03T16:42:53.009Z,100768.05
2019-05-03T16:45:22.166Z,100776.55
2019-05-03T16:47:52.731Z,100777.03
2019-05-03T16:50:20.566Z,100776.55
2019-05-03T16:52:48.839Z,100774.58
2019-05-03T16:55:17.161Z,100776.91
2019-05-03T16:57:45.480Z,100772.97
2019-05-03T17:00:15.352Z,100775.52
2019-05-03T17:02:44.334Z,100774.88
2019-05-03T17:05:20.086Z,100768.27
2019-05-03T17:07:56.143Z,100761.72
2019-05-03T17:10:26.063Z,100757.70
2019-05-03T17:12:56.793Z,100761.28
2019-05-03T17:15:24.991Z,100762.71
2019-05-03T17:17:55.000Z,100765.52
2019-05-03T17:20:25.336Z,100764.88
2019-05-03T17:22:55.391Z,100767.80
2019-05-03T17:25:24.545Z,100762.86
2019-05-03T17:27:54.703Z,100765.77
2019-05-03T17:30:32.677Z,100759.33
2019-05-03T17:32:55.012Z,100760.52
2019-05-03T17:35:25.128Z,100758.00
2019-05-03T17:37:54.641Z,100752.56
2019-05-03T17:40:41.220Z,100756.89
2019-05-03T17:43:22.877Z,100757.89
2019-05-03T17:45:54.888Z,100752.64
2019-05-03T17:48:22.914Z,100744.98
2019-05-03T17:50:51.243Z,100745.89
2019-05-03T17:53:38.855Z,100752.09
2019-05-03T17:56:08.840Z,100748.73
2019-05-03T17:58:38.756Z,100749.97
2019-05-03T18:01:11.472Z,100748.18
2019-05-03T18:03:41.521Z,100754.52
2019-05-03T18:06:19.795Z,100755.82
2019-05-03T18:08:50.033Z,100752.33
2019-05-03T18:11:22.390Z,100751.14
2019-05-03T18:13:55.182Z,100761.71
2019-05-03T18:16:24.449Z,100752.11
2019-05-03T18:18:54.776Z,100752.88
2019-05-03T18:21:24.432Z,100742.23
2019-05-03T18:23:54.524Z,100740.97
2019-05-03T18:26:24.969Z,100749.94
2019-05-03T18:28:54.961Z,100748.10
2019-05-03T18:31:25.048Z,100744.99
2019-05-03T18:33:54.721Z,100742.37
2019-05-03T18:36:25.105Z,100747.59
2019-05-03T18:38:55.274Z,100746.27
2019-05-03T18:41:25.472Z,100749.53
2019-05-03T18:43:58.100Z,100736.37
2019-05-03T18:46:29.011Z,100746.61
2019-05-03T18:49:02.056Z,100733.48
2019-05-03T18:51:30.354Z,100735.50
2019-05-03T18:53:58.704Z,100744.66
2019-05-03T18:56:27.024Z,100735.55
2019-05-03T18:58:55.384Z,100735.87
2019-05-03T19:01:25.325Z,100734.53
2019-05-03T19:03:55.534Z,100729.42
2019-05-03T19:06:24.384Z,100737.07
2019-05-03T19:09:14.486Z,100740.82
2019-05-03T19:11:47.856Z,100741.19
2019-05-03T19:14:17.796Z,100736.77
2019-05-03T19:16:56.747Z,100737.63
2019-05-03T19:19:26.680Z,100737.89
2019-05-03T19:21:56.034Z,100741.12
2019-05-03T19:24:24.663Z,100751.48
2019-05-03T19:26:54.362Z,100750.97
2019-05-03T19:29:24.936Z,100760.45
2019-05-03T19:31:55.153Z,100773.63
2019-05-03T19:34:24.274Z,100767.80
2019-05-03T19:36:54.728Z,100764.18
2019-05-03T19:39:25.102Z,100753.45
2019-05-03T19:41:55.160Z,100742.45
2019-05-03T19:44:23.459Z,100739.87
2019-05-03T19:46:52.554Z,100735.87
2019-05-03T19:49:20.912Z,100734.31
2019-05-03T19:51:49.190Z,100732.65
2019-05-03T19:54:17.730Z,100727.50
2019-05-03T19:56:46.868Z,100731.88
2019-05-03T19:59:17.058Z,100725.94
2019-05-03T20:01:46.990Z,100724.56
2019-05-03T20:04:25.910Z,100722.11
2019-05-03T20:07:07.681Z,100724.19
2019-05-03T20:09:35.996Z,100724.22
2019-05-03T20:12:04.647Z,100735.02
2019-05-03T20:14:32.986Z,100731.56
2019-05-03T20:17:04.059Z,100739.95
2019-05-03T20:19:31.364Z,100736.22
2019-05-03T20:21:59.643Z,100733.02
2019-05-03T20:24:28.064Z,100727.36
2019-05-03T20:26:56.709Z,100730.34
2019-05-03T20:29:25.731Z,100731.48
2019-05-03T20:31:55.207Z,100729.59
2019-05-03T20:34:24.875Z,100721.87
2019-05-03T20:36:54.864Z,100722.41
2019-05-03T20:39:25.458Z,100721.66
2019-05-03T20:41:55.016Z,100723.02
2019-05-03T20:44:28.740Z,100717.69
2019-05-03T20:46:58.852Z,100718.48
2019-05-03T20:49:27.412Z,100709.55
2019-05-03T20:51:55.934Z,100710.09
2019-05-03T20:54:24.248Z,100709.28
2019-05-03T20:56:54.574Z,100710.05
2019-05-03T20:59:22.684Z,100704.66
2019-05-03T21:01:51.017Z,100706.00
2019-05-03T21:04:19.324Z,100711.09
2019-05-03T21:06:48.108Z,100712.72
2019-05-03T21:09:16.571Z,100710.55
2019-05-03T21:11:45.456Z,100708.38
2019-05-03T21:14:15.593Z,100704.59
2019-05-03T21:16:48.781Z,100698.37
2019-05-03T21:19:35.181Z,100702.67
2019-05-03T21:22:08.174Z,100696.20
2019-05-03T21:24:38.267Z,100708.09
2019-05-03T21:27:07.123Z,100706.00
2019-05-03T21:29:37.011Z,100710.05
2019-05-03T21:32:05.293Z,100710.56
2019-05-03T21:34:34.583Z,100714.11
2019-05-03T21:37:03.101Z,100726.25
2019-05-03T21:39:31.372Z,100729.23
2019-05-03T21:41:59.701Z,100742.41
2019-05-03T21:44:31.643Z,100732.27
2019-05-03T21:47:01.550Z,100747.17
2019-05-03T21:49:31.472Z,100730.34
2019-05-03T21:52:00.446Z,100716.75
2019-05-03T21:54:28.735Z,100712.77
2019-05-03T21:56:58.067Z,100705.27
2019-05-03T21:59:26.695Z,100711.99
2019-05-03T22:01:55.294Z,100706.59
2019-05-03T22:04:24.860Z,100705.47
2019-05-03T22:06:54.882Z,100690.14
2019-05-03T22:09:23.351Z,100702.47
2019-05-03T22:11:52.250Z,100704.36
2019-05-03T22:14:24.395Z,100704.36
2019-05-03T22:17:04.568Z,100696.53
2019-05-03T22:19:34.380Z,100697.32
2019-05-03T22:22:21.282Z,100700.59
2019-05-03T22:24:51.058Z,100702.23
2019-05-03T22:27:19.701Z,100698.20
2019-05-03T22:29:48.096Z,100697.94
2019-05-03T22:32:17.264Z,100690.14
2019-05-03T22:34:45.552Z,100683.95
2019-05-03T22:37:14.305Z,100675.09
2019-05-03T22:39:45.489Z,100676.72
2019-05-03T22:42:14.834Z,100670.50
2019-05-03T22:44:44.821Z,100668.94
2019-05-03T22:47:14.743Z,100671.34
2019-05-03T22:49:45.636Z,100671.86
2019-05-03T22:52:15.360Z,100666.53
2019-05-03T22:54:45.167Z,100658.19
2019-05-03T22:57:15.288Z,100654.14
2019-05-03T22:59:44.931Z,100654.91
2019-05-03T23:02:16.870Z,100656.79
2019-05-03T23:04:44.783Z,100656.22
2019-05-03T23:07:14.902Z,100663.72
2019-05-03T23:09:44.643Z,100655.39
2019-05-03T23:12:13.245Z,100655.13
2019-05-03T23:14:41.753Z,100650.55
2019-05-03T23:17:10.038Z,100649.73
2019-05-03T23:19:40.521Z,100648.39
2019-05-03T23:22:10.557Z,100648.39
2019-05-03T23:24:38.857Z,100647.30
2019-05-03T23:27:07.307Z,100643.26
2019-05-03T23:29:35.616Z,100640.06
2019-05-03T23:32:04.685Z,100636.84
2019-05-03T23:34:35.175Z,100620.50
2019-05-03T23:37:05.251Z,100620.50
2019-05-03T23:39:33.404Z,100634.15
2019-05-03T23:42:02.190Z,100621.80
2019-05-03T23:44:30.610Z,100623.69
2019-05-03T23:47:14.572Z,100619.67
2019-05-03T23:49:44.595Z,100615.95
2019-05-03T23:52:25.230Z,100623.50
2019-05-03T23:54:54.893Z,100616.27
2019-05-03T23:57:25.164Z,100616.27
2019-05-03T23:59:54.991Z,100613.31
